LICJ Airport Information

Runway Information
Runway 02 Length 6804 ft width 148 ft
Elevation 42 ft Threshold 10 ft Heading 24
Runway 20 Length 6804 ft Width 148 ft
Elevation 22 ft Threshold 10 ft Heading 204
Runway 07 Length 10912 ft width 197 ft
Elevation 33 ft Threshold 404 ft Heading 67
Runway 25 Length 10912 ft Width 197 ft
Elevation 50 ft Threshold 679 ft Heading 247
Airport Frequencies
Type APP Name APP Frequency 120.2 MHZ
Type GND Name RAISI GND Frequency 121.625 MHZ
Type TWR Name RAISI TWR Frequency 119.05 MHZ
Airport Navaids
Type VOR-DME Name Palermo Frequency 112300 KHZ
Type NDB Name Palermo Frequency 356 KHZ
Type VOR-DME Name Raisi Frequency 113000 KHZ
Type NDB Name Raisi Frequency 329 KHZ
Airport Weather Information & NOTAM
ADDS - METARS form results

(2116 UTC 23 February 2019)
Data provider http://aviationweather.gov/metar/data/
 
METAR text: LICJ 232050Z 05035KT 9999 SCT020 09/03 Q1015
Conditions at: LICJ (PALERMO/POINT RA, IT) observed 2050 UTC 23 February 2019
Temperature: 9.0°C (48°F)
Dewpoint: 3.0°C (37°F) [RH = 66%]
Pressure (altimeter): 29.97 inches Hg (1015.0 mb)
Winds: from the NE (50 degrees) at 40 MPH (35 knots; 18.0 m/s)
Visibility: 6 or more miles (10+ km)
Ceiling: at least 12,000 feet AGL
Clouds: scattered clouds at 2000 feet AGL
Weather: no significant weather observed at this time

METAR text: LICJ 232020Z 04034KT 9999 SCT020 09/04 Q1016
Conditions at: LICJ (PALERMO/POINT RA, IT) observed 2020 UTC 23 February 2019
Temperature: 9.0°C (48°F)
Dewpoint: 4.0°C (39°F) [RH = 71%]
Pressure (altimeter): 30.00 inches Hg (1016.0 mb)
Winds: from the NE (40 degrees) at 39 MPH (34 knots; 17.5 m/s)
Visibility: 6 or more miles (10+ km)
Ceiling: at least 12,000 feet AGL
Clouds: scattered clouds at 2000 feet AGL
Weather: no significant weather observed at this time

Forecast for: LICJ (PALERMO/POINT RA, IT)
Text: TAF LICJ 231700Z 2318/2418 03020G35KT 9999 SCT020 BKN050
Forecast period: 1800 UTC 23 February 2019 to 1800 UTC 24 February 2019
Forecast type: FROM: standard forecast or significant change
Winds: from the NNE (30 degrees) at 23 MPH (20 knots; 10.3 m/s)
gusting to 40 MPH (35 knots; 18.0 m/s)
Visibility: 6 or more miles 10+ km)
Ceiling: 5000 feet AGL
Clouds: scattered clouds at 2000 feet AGL
broken clouds at 5000 feet AGL
Weather: no significant weather forecast for this period
Text: TEMPO 2318/2324 4000 SHRA
Forecast period: 1800 UTC 23 February 2019 to 0000 UTC 24 February 2019
Forecast type: TEMPORARY: The following changes expected for less than half the time period
Visibility: 2.49 miles (4.01 km)
Ceiling: unknown
Clouds: missing
Weather: SHRA  (rain showers)